Time;durP1;ratioP1;P1;durP2;ratioP2;P2;SDS_P1;SDS_P2;PMS_P1;PMS_P2;Temp;Humidity;BMP_temperature;BMP_pressure;BME280_temperature;BME280_humidity;BME280_pressure;Samples;Min_cycle;Max_cycle;Signal;HPM_P1;HPM_P2
2022/02/07 00:01:13;;;;;;;7.28;3.20;;;8.90;68.90;;;;;;5050364;28;20044;-77
2022/02/07 00:03:47;;;;;;;9.15;2.53;;;8.90;68.90;;;;;;5050711;28;20032;-78
2022/02/07 00:06:14;;;;;;;13.73;2.35;;;8.90;68.90;;;;;;5049947;28;20571;-78
2022/02/07 00:08:41;;;;;;;7.88;1.90;;;8.90;68.90;;;;;;5049202;28;20033;-78
2022/02/07 00:11:07;;;;;;;6.43;2.13;;;8.90;68.90;;;;;;5050796;28;20043;-78
2022/02/07 00:13:33;;;;;;;6.93;2.10;;;8.90;68.90;;;;;;5032839;28;20036;-79
2022/02/07 00:16:00;;;;;;;10.23;2.75;;;8.80;68.70;;;;;;5049944;28;20029;-78
2022/02/07 00:18:26;;;;;;;9.65;2.63;;;8.80;68.70;;;;;;5032690;28;20033;-79
2022/02/07 00:20:53;;;;;;;9.13;2.60;;;8.80;68.70;;;;;;5032359;28;20408;-79
2022/02/07 00:23:19;;;;;;;9.80;2.65;;;8.80;68.70;;;;;;5050228;28;20061;-79
2022/02/07 00:25:45;;;;;;;10.02;2.05;;;8.70;68.50;;;;;;5050484;28;20040;-79
2022/02/07 00:28:11;;;;;;;9.60;2.13;;;8.70;69.10;;;;;;5046572;28;20024;-80
2022/02/07 00:30:38;;;;;;;10.25;3.15;;;8.70;68.60;;;;;;5030149;28;20048;-82
2022/02/07 00:33:05;;;;;;;10.02;2.40;;;8.60;68.50;;;;;;5012238;28;20034;-81
2022/02/07 00:35:31;;;;;;;8.05;2.28;;;8.60;68.50;;;;;;5012105;28;20420;-80
2022/02/07 00:38:03;;;;;;;10.52;1.98;;;8.60;68.50;;;;;;5030544;28;20033;-80
2022/02/07 00:40:57;;;;;;;11.52;2.10;;;8.50;68.50;;;;;;5011854;28;20088;-80
2022/02/07 00:46:11;;;;;;;11.02;3.88;;;8.60;68.60;;;;;;5012237;28;20683;-80
2022/02/07 00:48:38;;;;;;;7.07;2.10;;;8.50;68.50;;;;;;5011842;28;20044;-80
2022/02/07 00:51:05;;;;;;;8.50;2.40;;;8.50;68.50;;;;;;5012026;28;20572;-80
2022/02/07 00:53:33;;;;;;;7.30;2.17;;;8.50;68.50;;;;;;5012244;28;20029;-78
2022/02/07 00:56:01;;;;;;;10.60;2.03;;;8.50;68.50;;;;;;5029532;28;20033;-79
2022/02/07 00:58:29;;;;;;;6.38;2.00;;;8.50;68.50;;;;;;4995564;28;20032;-78
2022/02/07 01:00:56;;;;;;;7.38;2.58;;;8.40;68.30;;;;;;5011575;28;20037;-79
2022/02/07 01:03:27;;;;;;;11.57;3.03;;;8.40;68.30;;;;;;5012132;28;20374;-78
2022/02/07 01:05:56;;;;;;;11.55;2.20;;;8.40;68.30;;;;;;5011614;28;20256;-78
2022/02/07 01:08:36;;;;;;;9.75;2.60;;;8.40;68.40;;;;;;5010943;28;20058;-77
2022/02/07 01:11:59;;;;;;;7.75;2.90;;;8.40;68.30;;;;;;4995355;28;20037;-78
2022/02/07 01:14:14;;;;;;;8.85;2.05;;;8.40;68.40;;;;;;5019880;28;20037;-78
2022/02/07 01:19:52;;;;;;;6.75;2.58;;;8.30;68.20;;;;;;5011542;28;20029;-78
2022/02/07 01:57:56;;;;;;;9.75;2.90;;;8.20;68.10;;;;;;5033421;28;20025;-80
2022/02/07 02:00:27;;;;;;;8.00;2.40;;;8.20;68.10;;;;;;5032459;28;20060;-79
2022/02/07 02:02:57;;;;;;;10.75;3.03;;;8.20;68.10;;;;;;5049579;28;20145;-79
2022/02/07 02:05:36;;;;;;;9.50;2.30;;;8.20;68.00;;;;;;5036006;28;20120;-78
2022/02/07 02:08:09;;;;;;;9.15;2.88;;;8.20;68.10;;;;;;5035773;28;20047;-76
2022/02/07 02:10:39;;;;;;;8.98;2.90;;;8.20;68.10;;;;;;5017682;28;20501;-77
2022/02/07 02:13:12;;;;;;;7.22;2.60;;;8.20;68.10;;;;;;5012098;28;20025;-79
2022/02/07 02:37:47;;;;;;;10.45;2.63;;;8.00;68.40;;;;;;5010606;28;20112;-79
2022/02/07 02:45:45;;;;;;;8.88;2.38;;;8.00;68.00;;;;;;5013706;28;20443;-78
2022/02/07 02:48:27;;;;;;;8.48;2.97;;;7.90;67.80;;;;;;5033286;28;20037;-79
2022/02/07 02:50:56;;;;;;;14.18;3.28;;;7.90;67.80;;;;;;5016891;28;20037;-78
2022/02/07 02:53:23;;;;;;;9.30;2.85;;;7.90;67.90;;;;;;5033239;28;20029;-78
2022/02/07 02:55:52;;;;;;;12.88;3.30;;;7.90;67.90;;;;;;5029968;28;20125;-79
2022/02/07 02:58:24;;;;;;;8.05;2.70;;;7.90;67.90;;;;;;5029869;28;20079;-78
2022/02/07 03:00:54;;;;;;;11.32;2.95;;;7.90;67.90;;;;;;5013244;28;20057;-79
2022/02/07 03:03:38;;;;;;;8.32;3.70;;;7.80;67.80;;;;;;5029813;28;20060;-79
2022/02/07 03:06:04;;;;;;;7.22;2.15;;;7.80;67.80;;;;;;5012706;28;20076;-80
2022/02/07 03:08:30;;;;;;;9.90;2.40;;;7.80;67.80;;;;;;5030678;28;20434;-79
2022/02/07 03:11:03;;;;;;;11.05;2.53;;;7.80;67.80;;;;;;4996378;28;20052;-79
2022/02/07 03:13:46;;;;;;;9.80;2.38;;;7.70;67.60;;;;;;5013374;28;20036;-79
2022/02/07 03:16:37;;;;;;;12.82;3.53;;;7.70;68.10;;;;;;5029333;28;20026;-80
2022/02/07 03:19:10;;;;;;;8.60;2.22;;;7.70;67.60;;;;;;5013756;28;20033;-80
2022/02/07 03:21:37;;;;;;;8.82;2.25;;;7.70;67.60;;;;;;5029667;28;20030;-81
2022/02/07 03:24:04;;;;;;;4.63;2.40;;;7.60;67.50;;;;;;5012821;28;20029;-81
2022/02/07 03:26:44;;;;;;;10.43;3.25;;;7.60;67.50;;;;;;5029301;28;20112;-80
2022/02/07 03:29:15;;;;;;;12.27;3.30;;;7.60;67.60;;;;;;5012939;28;20033;-80
2022/02/07 03:31:45;;;;;;;9.55;2.70;;;7.50;67.50;;;;;;5028829;28;20041;-80
2022/02/07 03:34:15;;;;;;;9.82;2.70;;;7.50;67.50;;;;;;5028928;28;20116;-80
2022/02/07 03:36:43;;;;;;;12.23;2.70;;;7.50;67.50;;;;;;5029647;28;20140;-80
2022/02/07 03:39:11;;;;;;;9.98;2.67;;;7.50;67.60;;;;;;5013061;28;20060;-81
2022/02/07 03:41:37;;;;;;;9.40;2.42;;;7.50;67.60;;;;;;5012932;28;20037;-80
2022/02/07 03:44:05;;;;;;;9.85;2.78;;;7.50;67.60;;;;;;5029113;28;20449;-80
2022/02/07 03:46:32;;;;;;;9.77;2.10;;;7.40;67.50;;;;;;5029545;28;20037;-79
2022/02/07 03:48:59;;;;;;;11.75;3.00;;;7.40;68.00;;;;;;5012804;28;20060;-79
2022/02/07 03:51:25;;;;;;;11.85;2.45;;;7.40;67.60;;;;;;5012639;28;20043;-79
2022/02/07 03:53:52;;;;;;;10.77;3.08;;;7.40;67.50;;;;;;5028863;28;20025;-79
2022/02/07 03:56:18;;;;;;;4.30;1.77;;;7.40;67.60;;;;;;5028699;28;20029;-78
2022/02/07 03:58:46;;;;;;;14.52;3.53;;;7.30;67.40;;;;;;5012714;28;20022;-80
2022/02/07 04:01:18;;;;;;;10.48;3.03;;;7.30;67.40;;;;;;5012540;28;20042;-80
2022/02/07 04:03:47;;;;;;;8.45;2.55;;;7.30;67.40;;;;;;5029157;28;20058;-79
2022/02/07 04:06:17;;;;;;;7.20;2.53;;;7.30;67.40;;;;;;5029772;28;20029;-81
2022/02/07 04:08:52;;;;;;;8.70;2.25;;;7.30;67.50;;;;;;5012607;28;20041;-80
2022/02/07 04:11:41;;;;;;;8.48;2.35;;;7.30;67.50;;;;;;5029081;28;20252;-80
2022/02/07 04:14:07;;;;;;;9.13;2.67;;;7.30;67.50;;;;;;5028690;28;20037;-80
2022/02/07 04:16:38;;;;;;;8.27;2.50;;;7.20;67.40;;;;;;5029007;28;20025;-79
2022/02/07 04:19:21;;;;;;;7.70;2.25;;;7.20;67.40;;;;;;4998070;28;20025;-79
2022/02/07 04:21:50;;;;;;;9.73;3.92;;;7.20;67.40;;;;;;5012610;28;20038;-80
2022/02/07 04:24:31;;;;;;;9.48;2.65;;;7.20;67.40;;;;;;5028689;28;20025;-80
2022/02/07 04:27:04;;;;;;;9.63;2.20;;;7.10;67.30;;;;;;5012510;28;20029;-80
2022/02/07 04:29:31;;;;;;;6.75;2.30;;;7.10;67.30;;;;;;5028927;28;20531;-80
2022/02/07 04:31:59;;;;;;;10.40;2.78;;;7.10;67.30;;;;;;5029280;28;20041;-80
2022/02/07 04:34:26;;;;;;;12.73;3.35;;;7.10;67.30;;;;;;5013152;28;20076;-80
2022/02/07 04:36:56;;;;;;;9.13;2.20;;;7.10;67.30;;;;;;5012490;28;20032;-80
2022/02/07 04:39:23;;;;;;;9.65;2.25;;;7.00;67.20;;;;;;5028631;28;20029;-80
2022/02/07 04:41:54;;;;;;;8.95;2.67;;;7.00;67.20;;;;;;5029109;28;20555;-79
2022/02/07 04:44:27;;;;;;;11.20;3.53;;;7.00;67.20;;;;;;5014966;28;20033;-77
2022/02/07 04:47:08;;;;;;;9.50;2.78;;;7.00;67.20;;;;;;5032487;28;20033;-80
2022/02/07 04:50:03;;;;;;;11.18;3.70;;;6.90;67.10;;;;;;5015353;28;20033;-80
2022/02/07 04:55:29;;;;;;;7.78;2.38;;;6.90;67.10;;;;;;5032957;28;20047;-78
2022/02/07 04:58:13;;;;;;;4.60;2.05;;;6.90;67.10;;;;;;5031665;28;20025;-79
2022/02/07 05:01:05;;;;;;;8.38;2.60;;;6.80;67.00;;;;;;5032148;28;20056;-80
2022/02/07 05:03:37;;;;;;;7.05;1.88;;;6.80;67.00;;;;;;5011026;28;20025;-79
2022/02/07 05:14:20;;;;;;;11.48;3.05;;;6.60;66.80;;;;;;5052121;28;20119;-79
2022/02/07 05:16:49;;;;;;;8.60;2.03;;;6.60;66.90;;;;;;5034903;28;20025;-79
2022/02/07 05:19:48;;;;;;;10.80;3.05;;;6.60;66.90;;;;;;5039694;28;20029;-79
2022/02/07 05:22:41;;;;;;;;;;;6.50;66.80;;;;;;5052210;28;20116;-79
2022/02/07 05:25:25;;;;;;;7.88;2.78;;;6.50;66.90;;;;;;5052840;28;19909;-79
2022/02/07 05:28:17;;;;;;;8.95;2.88;;;6.50;66.80;;;;;;5036615;28;20029;-79
2022/02/07 05:31:08;;;;;;;8.13;2.45;;;6.40;66.60;;;;;;5044076;28;20049;-80
2022/02/07 05:34:13;;;;;;;7.65;1.90;;;6.40;66.70;;;;;;5038928;28;20044;-81
2022/02/07 05:37:13;;;;;;;11.05;2.60;;;6.40;66.70;;;;;;5014933;28;20193;-79
2022/02/07 05:40:22;;;;;;;7.25;2.10;;;6.40;66.60;;;;;;5039983;28;20499;-79
2022/02/07 05:43:16;;;;;;;6.68;2.10;;;6.40;66.60;;;;;;5047010;28;20033;-79
2022/02/07 05:46:18;;;;;;;7.28;2.30;;;6.40;66.60;;;;;;4990153;28;20045;-78
2022/02/07 05:48:50;;;;;;;12.05;2.65;;;6.40;66.60;;;;;;5023754;28;20464;-77
2022/02/07 05:51:24;;;;;;;7.40;2.38;;;6.40;66.70;;;;;;5027041;28;20041;-77
2022/02/07 05:54:16;;;;;;;11.13;3.40;;;6.40;66.70;;;;;;5011169;28;20471;-77
2022/02/07 05:57:08;;;;;;;10.45;2.70;;;6.40;66.70;;;;;;5026783;28;20037;-78
2022/02/07 05:59:53;;;;;;;7.90;2.78;;;6.40;66.70;;;;;;5028971;28;20564;-78
2022/02/07 06:02:19;;;;;;;7.45;2.22;;;6.40;66.70;;;;;;5028058;28;20033;-77
2022/02/07 06:04:48;;;;;;;7.95;2.10;;;6.40;66.70;;;;;;5010760;28;20029;-77
2022/02/07 06:07:14;;;;;;;7.97;2.25;;;6.40;66.70;;;;;;5031610;28;20044;-77
2022/02/07 06:09:40;;;;;;;4.95;2.08;;;6.40;66.70;;;;;;5020118;28;20033;-76
2022/02/07 06:12:08;;;;;;;11.55;3.15;;;6.40;66.70;;;;;;5020302;28;20033;-79
2022/02/07 06:14:34;;;;;;;9.32;2.80;;;6.40;66.70;;;;;;5021593;28;20345;-79
2022/02/07 06:17:01;;;;;;;12.27;2.80;;;6.40;66.70;;;;;;5003723;28;20071;-79
2022/02/07 06:19:31;;;;;;;7.85;2.30;;;6.40;66.70;;;;;;5027257;28;20480;-81
2022/02/07 06:21:57;;;;;;;7.07;2.10;;;6.40;66.70;;;;;;5013134;28;20025;-77
2022/02/07 06:24:24;;;;;;;8.75;2.28;;;6.40;66.70;;;;;;5012470;28;20031;-77
2022/02/07 06:26:51;;;;;;;6.10;1.98;;;6.30;66.50;;;;;;5010274;28;20535;-78
2022/02/07 06:29:20;;;;;;;6.82;2.47;;;6.30;66.50;;;;;;5010085;28;20025;-77
2022/02/07 06:31:51;;;;;;;5.05;1.90;;;6.30;66.50;;;;;;5017704;28;20049;-77
2022/02/07 06:34:17;;;;;;;9.88;2.78;;;6.30;66.50;;;;;;5017895;28;20080;-77
2022/02/07 06:36:43;;;;;;;9.35;2.88;;;6.30;66.80;;;;;;4998467;28;20033;-77
2022/02/07 06:39:12;;;;;;;5.72;2.53;;;6.30;67.10;;;;;;5035318;28;20473;-76
2022/02/07 06:41:42;;;;;;;10.32;2.38;;;6.40;67.40;;;;;;5009819;28;20132;-77
2022/02/07 06:44:10;;;;;;;6.05;2.30;;;6.50;67.50;;;;;;5035751;28;20025;-77
2022/02/07 06:46:37;;;;;;;8.80;2.42;;;6.40;67.20;;;;;;5015751;28;20091;-77
2022/02/07 06:49:04;;;;;;;6.55;1.70;;;6.40;67.70;;;;;;5009967;28;20424;-77
2022/02/07 06:51:31;;;;;;;10.07;2.10;;;6.40;67.20;;;;;;5012238;28;20513;-77
2022/02/07 06:53:57;;;;;;;4.47;2.00;;;6.40;67.30;;;;;;5030113;28;20111;-76
2022/02/07 06:56:26;;;;;;;8.95;2.88;;;6.30;67.10;;;;;;5029620;28;20272;-79
2022/02/07 06:58:53;;;;;;;6.93;2.75;;;6.30;67.10;;;;;;5029505;28;20112;-77
2022/02/07 07:01:24;;;;;;;5.68;2.00;;;6.30;67.20;;;;;;5014062;28;20024;-77
2022/02/07 07:03:50;;;;;;;7.18;2.10;;;6.20;67.00;;;;;;5023765;28;20025;-82
2022/02/07 07:06:17;;;;;;;6.55;2.10;;;6.20;67.10;;;;;;5025676;28;20029;-78
2022/02/07 07:08:51;;;;;;;8.25;2.28;;;6.10;67.00;;;;;;5033915;28;20176;-79
2022/02/07 07:11:21;;;;;;;9.15;2.75;;;6.10;67.10;;;;;;5026529;28;20069;-78
2022/02/07 07:13:53;;;;;;;6.38;2.22;;;6.10;67.10;;;;;;5027130;28;20025;-77
2022/02/07 07:19:04;;;;;;;11.40;2.75;;;6.10;67.10;;;;;;5029257;28;20072;-78
2022/02/07 07:21:32;;;;;;;8.57;3.03;;;6.00;66.90;;;;;;5029123;28;20503;-77
2022/02/07 07:24:01;;;;;;;4.90;2.33;;;6.00;66.90;;;;;;5021572;28;20033;-76
2022/02/07 07:26:30;;;;;;;8.73;2.70;;;6.00;66.90;;;;;;5032417;28;20057;-77
2022/02/07 07:29:01;;;;;;;6.05;2.85;;;6.00;66.90;;;;;;5010178;28;20033;-77
2022/02/07 07:31:27;;;;;;;7.82;2.78;;;6.00;66.90;;;;;;5027696;28;20040;-77
2022/02/07 07:33:55;;;;;;;8.77;2.70;;;5.90;66.80;;;;;;5024684;28;20069;-82
2022/02/07 07:36:22;;;;;;;6.32;3.28;;;5.90;66.90;;;;;;5011801;28;20029;-77
2022/02/07 07:38:49;;;;;;;7.75;2.90;;;6.00;67.50;;;;;;5022545;28;20226;-78
2022/02/07 07:41:18;;;;;;;8.00;3.15;;;6.00;67.60;;;;;;5014932;28;20075;-78
2022/02/07 07:44:07;;;;;;;7.00;2.88;;;6.10;67.80;;;;;;5047545;28;20272;-77
2022/02/07 07:47:12;;;;;;;9.98;3.03;;;6.10;67.70;;;;;;5047308;28;20087;-77
2022/02/07 07:50:05;;;;;;;6.80;2.67;;;6.10;67.60;;;;;;5028782;28;20472;-76
2022/02/07 07:53:11;;;;;;;9.68;2.40;;;6.10;67.60;;;;;;5031308;28;20049;-76
2022/02/07 08:04:11;;;;;;;6.20;2.63;;;6.00;67.40;;;;;;5027478;28;20029;-76
2022/02/07 08:06:51;;;;;;;5.68;2.92;;;6.00;67.50;;;;;;5028436;28;20463;-77
2022/02/07 08:12:02;;;;;;;7.97;4.28;;;6.00;67.60;;;;;;5029252;28;20049;-77
2022/02/07 08:14:35;;;;;;;6.95;2.80;;;6.00;67.50;;;;;;5045424;28;20108;-77
2022/02/07 08:17:06;;;;;;;8.23;3.42;;;6.00;67.50;;;;;;5046566;28;20119;-77
2022/02/07 08:19:33;;;;;;;12.05;3.50;;;6.00;67.60;;;;;;5049960;28;20052;-75
2022/02/07 08:22:03;;;;;;;9.32;3.50;;;6.00;67.50;;;;;;5050378;28;20033;-77
2022/02/07 08:24:32;;;;;;;7.82;3.70;;;6.10;67.70;;;;;;5032841;28;20025;-77
2022/02/07 08:26:59;;;;;;;6.75;3.33;;;6.10;67.60;;;;;;5050364;28;20025;-77
2022/02/07 08:29:25;;;;;;;10.68;3.50;;;6.10;67.60;;;;;;5032603;28;20060;-77
2022/02/07 08:31:51;;;;;;;8.80;3.17;;;6.10;67.60;;;;;;5032791;28;20423;-77
2022/02/07 08:34:17;;;;;;;6.40;2.90;;;6.10;67.60;;;;;;5050199;28;20126;-77
2022/02/07 08:36:43;;;;;;;8.80;3.38;;;6.10;67.60;;;;;;5027008;28;20033;-77
2022/02/07 08:39:09;;;;;;;6.05;2.70;;;6.20;67.70;;;;;;5026568;28;20033;-77
2022/02/07 08:41:36;;;;;;;7.22;2.90;;;6.20;67.70;;;;;;5032253;28;20040;-77
2022/02/07 08:44:02;;;;;;;7.28;2.92;;;6.20;67.60;;;;;;5032498;28;20475;-77
2022/02/07 08:46:28;;;;;;;5.50;2.70;;;6.30;67.80;;;;;;5049749;28;20130;-77
2022/02/07 08:48:54;;;;;;;8.65;3.95;;;6.30;67.70;;;;;;5049498;28;20056;-78
2022/02/07 08:51:20;;;;;;;7.82;2.90;;;6.40;67.80;;;;;;5049805;28;20136;-78
2022/02/07 08:53:48;;;;;;;9.98;3.28;;;6.40;67.70;;;;;;5028782;28;20107;-78
2022/02/07 08:56:16;;;;;;;6.13;3.78;;;6.50;67.80;;;;;;5029927;28;20119;-77
2022/02/07 08:58:45;;;;;;;6.97;3.55;;;6.50;67.70;;;;;;5030865;28;20271;-78
2022/02/07 09:04:08;;;;;;;9.23;3.70;;;6.60;67.70;;;;;;5031266;28;20525;-79
2022/02/07 09:06:36;;;;;;;9.10;3.78;;;6.60;67.60;;;;;;5048380;28;20175;-78
2022/02/07 09:09:16;;;;;;;7.53;3.00;;;6.80;67.90;;;;;;5018797;28;20060;-79
2022/02/07 09:11:44;;;;;;;9.60;3.45;;;6.90;67.90;;;;;;5029171;28;20033;-77
2022/02/07 09:14:13;;;;;;;6.50;3.20;;;6.90;67.80;;;;;;5030128;28;20124;-77
2022/02/07 09:16:40;;;;;;;9.10;3.20;;;7.00;67.80;;;;;;5029402;28;20033;-78
2022/02/07 09:19:09;;;;;;;6.07;2.83;;;7.10;67.90;;;;;;5029346;28;20076;-78
2022/02/07 09:21:36;;;;;;;8.32;2.95;;;7.20;67.90;;;;;;5039174;28;20036;-78
2022/02/07 09:24:02;;;;;;;7.32;3.20;;;7.30;67.90;;;;;;5047910;28;20025;-79
2022/02/07 09:26:29;;;;;;;7.47;3.55;;;7.40;68.00;;;;;;5048466;28;20063;-78
2022/02/07 09:28:55;;;;;;;9.82;3.20;;;7.50;68.00;;;;;;5035939;28;20040;-78
2022/02/07 09:31:21;;;;;;;11.57;4.07;;;7.60;68.00;;;;;;5010289;28;20115;-78
2022/02/07 09:33:48;;;;;;;7.60;2.95;;;7.80;68.10;;;;;;5028344;28;20065;-78
2022/02/07 09:36:15;;;;;;;5.65;2.90;;;7.90;68.00;;;;;;5028648;28;20116;-78
2022/02/07 09:38:44;;;;;;;7.03;3.55;;;8.00;68.00;;;;;;5029819;28;20041;-78
2022/02/07 09:41:11;;;;;;;7.22;2.78;;;8.10;67.90;;;;;;5029598;28;20068;-78
2022/02/07 09:43:46;;;;;;;9.20;3.40;;;8.20;67.90;;;;;;5029276;28;20548;-77
2022/02/07 09:46:19;;;;;;;13.02;3.67;;;8.20;67.80;;;;;;5029130;28;20515;-78
2022/02/07 09:48:45;;;;;;;;;;;8.30;68.00;;;;;;5032785;28;20100;-78
2022/02/07 09:51:12;;;;;;;7.75;3.30;;;8.30;67.90;;;;;;5049098;28;19921;-78
2022/02/07 09:53:40;;;;;;;6.03;2.90;;;8.40;67.90;;;;;;5048891;28;20036;-78
2022/02/07 09:56:09;;;;;;;7.38;3.33;;;8.50;68.10;;;;;;5030851;28;20032;-78
2022/02/07 09:58:38;;;;;;;7.80;2.85;;;8.50;68.10;;;;;;5048509;28;20025;-77
2022/02/07 10:01:12;;;;;;;10.77;3.72;;;8.60;68.10;;;;;;5048979;28;20120;-77
2022/02/07 10:03:55;;;;;;;7.63;3.42;;;8.70;68.20;;;;;;5030411;28;20384;-77
2022/02/07 10:14:49;;;;;;;11.10;4.07;;;9.00;68.10;;;;;;5050436;28;20025;-78
2022/02/07 10:37:05;;;;;;;10.05;3.00;;;10.10;68.20;;;;;;5029865;28;20033;-76
2022/02/07 10:39:26;;;;;;;9.15;3.42;;;10.20;68.30;;;;;;5047436;28;20395;-80
2022/02/07 10:42:29;;;;;;;7.63;2.70;;;10.30;68.20;;;;;;5047377;28;20025;-80
2022/02/07 10:44:50;;;;;;;14.23;4.57;;;10.30;68.10;;;;;;5047849;28;20040;-77
2022/02/07 10:47:25;;;;;;;8.65;2.97;;;10.30;68.00;;;;;;5047372;28;20476;-75
2022/02/07 10:50:05;;;;;;;11.93;3.35;;;10.40;68.20;;;;;;5029901;28;20029;-77
2022/02/07 10:52:59;;;;;;;12.40;3.13;;;10.50;68.40;;;;;;5047839;28;20036;-76
2022/02/07 10:55:28;;;;;;;14.27;4.22;;;10.50;68.60;;;;;;5047705;28;20037;-76
2022/02/07 10:57:57;;;;;;;10.63;3.05;;;10.70;68.80;;;;;;5030148;28;20181;-78
2022/02/07 11:00:29;;;;;;;11.85;3.03;;;10.80;69.00;;;;;;5045645;28;20056;-78
2022/02/07 11:05:37;;;;;;;11.93;3.45;;;11.00;68.90;;;;;;5047803;28;20142;-79
2022/02/07 11:16:36;;;;;;;9.80;3.33;;;11.40;68.70;;;;;;5013211;28;20033;-79
2022/02/07 11:19:15;;;;;;;10.80;3.55;;;11.50;68.70;;;;;;5029284;28;20041;-78
2022/02/07 11:22:22;;;;;;;9.80;3.20;;;11.60;68.80;;;;;;5046953;28;20433;-78
2022/02/07 11:25:17;;;;;;;9.05;2.78;;;11.60;68.50;;;;;;5046578;28;20650;-78
2022/02/07 11:27:54;;;;;;;8.90;2.63;;;11.70;68.50;;;;;;5029904;28;20124;-78
2022/02/07 11:30:47;;;;;;;9.63;3.17;;;11.80;68.60;;;;;;5015651;28;20098;-78
2022/02/07 11:33:52;;;;;;;11.55;3.53;;;11.90;68.60;;;;;;5053545;28;20140;-78
2022/02/07 11:36:39;;;;;;;7.80;2.92;;;11.90;68.50;;;;;;5033475;28;20036;-78
2022/02/07 11:39:15;;;;;;;9.73;2.88;;;12.00;68.50;;;;;;5033501;28;20062;-76
2022/02/07 11:41:56;;;;;;;7.43;2.55;;;12.00;68.40;;;;;;5068799;28;20031;-78
2022/02/07 11:44:52;;;;;;;12.82;2.58;;;12.20;68.50;;;;;;5054401;28;20040;-77
2022/02/07 11:47:29;;;;;;;10.43;3.03;;;12.30;68.30;;;;;;5042825;28;20044;-78
2022/02/07 11:50:07;;;;;;;13.55;2.80;;;12.40;68.40;;;;;;5071584;28;20029;-77
2022/02/07 11:52:44;;;;;;;11.40;2.78;;;12.50;68.30;;;;;;5068228;28;20060;-77
2022/02/07 11:55:22;;;;;;;8.50;2.47;;;12.50;68.10;;;;;;5053844;28;20025;-77
2022/02/07 11:58:09;;;;;;;8.65;1.98;;;12.60;68.00;;;;;;5052904;28;20484;-77
2022/02/07 12:00:46;;;;;;;8.75;2.25;;;12.60;67.90;;;;;;5051089;28;20099;-77
2022/02/07 12:03:15;;;;;;;7.20;3.15;;;12.70;68.00;;;;;;5033960;28;20125;-77
2022/02/07 12:05:44;;;;;;;9.68;3.50;;;12.70;67.90;;;;;;5033898;28;20086;-81
2022/02/07 12:08:15;;;;;;;7.15;3.22;;;12.80;68.20;;;;;;5033389;28;20056;-79
2022/02/07 12:11:09;;;;;;;8.40;2.33;;;12.90;68.30;;;;;;5050619;28;20607;-82
2022/02/07 12:13:43;;;;;;;6.53;2.22;;;12.90;68.20;;;;;;5050926;28;20040;-79
2022/02/07 12:16:12;;;;;;;8.35;2.63;;;13.10;68.40;;;;;;5050865;28;20091;-77
2022/02/07 12:18:38;;;;;;;8.38;2.58;;;13.20;68.40;;;;;;5042469;28;20067;-81
2022/02/07 12:21:17;;;;;;;6.68;1.85;;;13.30;68.30;;;;;;5013487;28;20560;-82
2022/02/07 12:23:48;;;;;;;6.43;2.17;;;13.40;68.20;;;;;;5014726;28;20056;-88
2022/02/07 12:26:16;;;;;;;11.90;3.13;;;13.50;68.20;;;;;;5032334;28;20021;-89
2022/02/07 12:28:49;;;;;;;6.38;2.00;;;13.60;68.10;;;;;;5037693;28;20025;-84
2022/02/07 12:31:22;;;;;;;9.80;2.70;;;13.70;68.00;;;;;;5014286;28;20397;-88
2022/02/07 12:33:57;;;;;;;7.63;1.92;;;13.80;68.00;;;;;;5016059;28;20053;-89
2022/02/07 12:36:29;;;;;;;6.05;2.30;;;13.90;67.90;;;;;;5032061;28;20071;-91
2022/02/07 12:38:57;;;;;;;7.40;2.65;;;13.90;67.80;;;;;;5014305;28;20049;-92
2022/02/07 12:41:24;;;;;;;6.55;2.55;;;14.00;67.90;;;;;;5025544;28;20037;-93
2022/02/07 12:43:51;;;;;;;7.22;1.88;;;14.00;67.80;;;;;;5025783;28;20102;-94
2022/02/07 12:46:23;;;;;;;10.32;3.08;;;14.00;67.80;;;;;;5037770;28;20117;-94
2022/02/07 12:49:00;;;;;;;10.20;3.08;;;14.00;67.60;;;;;;5042156;28;20040;-90
2022/02/07 12:51:32;;;;;;;11.82;2.60;;;14.00;67.50;;;;;;5037460;28;20120;-91
2022/02/07 12:53:59;;;;;;;12.00;3.50;;;14.00;67.20;;;;;;5033555;28;20029;-85
2022/02/07 12:56:32;;;;;;;9.68;3.85;;;13.90;67.00;;;;;;5051188;28;20278;-86
2022/02/07 12:58:58;;;;;;;14.57;2.38;;;13.90;67.20;;;;;;5051236;28;20028;-89
2022/02/07 13:01:30;;;;;;;8.65;2.88;;;13.90;67.40;;;;;;5049486;28;20053;-89
2022/02/07 13:03:58;;;;;;;9.50;2.72;;;14.00;67.60;;;;;;5032487;28;20108;-87
2022/02/07 13:06:29;;;;;;;14.05;3.33;;;14.10;67.80;;;;;;5032142;28;20037;-88
2022/02/07 13:08:58;;;;;;;12.27;2.45;;;14.10;67.60;;;;;;5033167;28;20053;-88
2022/02/07 13:11:30;;;;;;;13.15;3.00;;;14.10;67.10;;;;;;5035246;28;20037;-87
2022/02/07 13:13:58;;;;;;;15.40;2.75;;;14.00;66.70;;;;;;5034853;28;20021;-83
2022/02/07 13:16:31;;;;;;;11.20;3.05;;;13.90;66.50;;;;;;5020081;28;20036;-94
2022/02/07 13:19:12;;;;;;;15.38;3.67;;;13.80;66.40;;;;;;5027901;28;20030;-90
2022/02/07 13:21:42;;;;;;;10.27;2.85;;;13.80;66.50;;;;;;5044786;28;20045;-90
2022/02/07 13:24:18;;;;;;;9.68;2.42;;;13.80;66.70;;;;;;5031034;28;20029;-81
2022/02/07 13:26:54;;;;;;;13.77;3.47;;;13.90;66.90;;;;;;5030412;28;20029;-79
2022/02/07 13:29:22;;;;;;;13.07;2.90;;;14.00;66.90;;;;;;5044518;28;20040;-83
2022/02/07 13:31:53;;;;;;;7.60;2.85;;;14.10;67.00;;;;;;5051176;28;20044;-91
2022/02/07 13:34:22;;;;;;;11.63;3.10;;;14.20;66.90;;;;;;5036411;28;20025;-93
2022/02/07 13:36:50;;;;;;;14.00;3.15;;;14.20;66.80;;;;;;5033548;28;20035;-92
2022/02/07 13:39:20;;;;;;;9.80;3.28;;;14.30;66.90;;;;;;5037376;28;20027;-95
2022/02/07 13:42:05;;;;;;;7.10;2.30;;;14.40;66.90;;;;;;5053889;28;20039;-94
2022/02/07 13:44:31;;;;;;;11.10;2.80;;;14.40;66.80;;;;;;5036402;28;20060;-92
2022/02/07 13:47:02;;;;;;;9.85;3.20;;;14.50;66.90;;;;;;5054871;28;20112;-94
2022/02/07 13:49:30;;;;;;;7.60;2.00;;;14.50;66.90;;;;;;5036552;28;20037;-93
2022/02/07 13:51:57;;;;;;;8.45;2.08;;;14.50;66.90;;;;;;5034945;28;20036;-94
2022/02/07 13:54:31;;;;;;;7.40;2.30;;;14.50;66.90;;;;;;5034912;28;20032;-93
2022/02/07 13:56:58;;;;;;;6.82;2.22;;;14.50;66.90;;;;;;5049755;28;20021;-85
2022/02/07 13:59:24;;;;;;;8.80;2.17;;;14.50;67.00;;;;;;5030741;28;20025;-80
2022/02/07 14:01:51;;;;;;;9.93;2.63;;;14.50;67.10;;;;;;5048309;28;20029;-83
2022/02/07 14:04:24;;;;;;;8.68;3.03;;;14.50;67.10;;;;;;5031460;28;20025;-84
2022/02/07 14:07:15;;;;;;;9.20;2.08;;;14.50;67.10;;;;;;5031374;28;20045;-85
2022/02/07 14:09:41;;;;;;;7.60;2.28;;;14.60;67.20;;;;;;5030963;28;20063;-85
2022/02/07 14:12:10;;;;;;;7.15;2.40;;;14.60;67.20;;;;;;5030866;28;20044;-84
2022/02/07 14:14:38;;;;;;;9.88;3.00;;;14.60;67.10;;;;;;5030543;28;20032;-84
2022/02/07 14:17:05;;;;;;;11.50;3.35;;;14.70;67.30;;;;;;5048666;28;20059;-85
2022/02/07 14:19:41;;;;;;;8.82;2.58;;;14.70;67.20;;;;;;5048443;28;20369;-85
2022/02/07 14:22:09;;;;;;;8.52;2.25;;;14.80;67.90;;;;;;5030828;28;20029;-85
2022/02/07 14:24:36;;;;;;;7.25;2.00;;;14.80;67.30;;;;;;5048311;28;20036;-85
2022/02/07 14:27:02;;;;;;;9.05;2.83;;;14.80;67.20;;;;;;5048429;28;20028;-80
2022/02/07 14:29:29;;;;;;;5.70;1.58;;;14.80;67.20;;;;;;5048259;28;20033;-85
2022/02/07 14:31:55;;;;;;;8.02;2.00;;;14.80;67.20;;;;;;5030927;28;20101;-88
2022/02/07 14:34:21;;;;;;;8.73;2.55;;;14.80;67.20;;;;;;5048399;28;20025;-83
2022/02/07 14:36:47;;;;;;;7.60;3.22;;;14.80;67.30;;;;;;5030434;28;20059;-86
2022/02/07 14:39:13;;;;;;;9.82;2.90;;;14.80;67.30;;;;;;5048050;28;20032;-87
2022/02/07 14:41:40;;;;;;;7.93;2.60;;;14.70;67.30;;;;;;5031308;28;20475;-82
2022/02/07 14:44:08;;;;;;;6.20;2.03;;;14.70;67.40;;;;;;5048201;28;20029;-83
2022/02/07 14:46:43;;;;;;;7.78;1.70;;;14.60;67.40;;;;;;5048026;28;20131;-82
2022/02/07 14:49:09;;;;;;;9.13;1.88;;;14.60;67.60;;;;;;5013855;28;20040;-83
2022/02/07 14:51:36;;;;;;;5.85;1.70;;;14.50;67.60;;;;;;5047733;28;20047;-83
2022/02/07 14:54:02;;;;;;;5.95;2.03;;;14.40;67.60;;;;;;5029881;28;20082;-83
2022/02/07 14:56:28;;;;;;;4.55;1.80;;;14.30;67.60;;;;;;5048447;28;20036;-84
2022/02/07 14:58:54;;;;;;;6.60;2.30;;;14.30;67.80;;;;;;5020121;28;20042;-86
2022/02/07 15:01:20;;;;;;;3.72;1.38;;;14.20;67.70;;;;;;5027938;28;20461;-83
2022/02/07 15:03:50;;;;;;;4.97;1.48;;;14.20;67.90;;;;;;5009662;28;20095;-82
2022/02/07 15:06:17;;;;;;;7.50;1.95;;;14.10;67.80;;;;;;5026182;28;20136;-87
2022/02/07 15:08:43;;;;;;;4.82;2.05;;;14.10;68.00;;;;;;5008201;28;20025;-81
2022/02/07 15:11:09;;;;;;;4.80;1.95;;;14.10;68.20;;;;;;5008073;28;20047;-83
2022/02/07 15:13:35;;;;;;;4.70;1.55;;;14.00;68.20;;;;;;5008558;28;20405;-85
2022/02/07 15:16:02;;;;;;;5.28;2.17;;;14.00;68.20;;;;;;5007621;28;20030;-84
2022/02/07 15:18:29;;;;;;;5.32;2.28;;;14.00;68.30;;;;;;4974727;28;20272;-83
2022/02/07 15:20:57;;;;;;;3.38;1.58;;;14.00;68.40;;;;;;5008036;28;20030;-84
2022/02/07 15:23:25;;;;;;;3.92;1.40;;;13.90;68.40;;;;;;5008392;28;20060;-82
2022/02/07 15:25:51;;;;;;;3.70;1.98;;;13.80;68.40;;;;;;5007979;28;20034;-81
2022/02/07 15:28:17;;;;;;;3.53;1.10;;;13.80;68.50;;;;;;5010490;28;20032;-88
2022/02/07 15:30:47;;;;;;;4.20;1.42;;;13.70;68.60;;;;;;4978495;28;20468;-86
2022/02/07 15:33:16;;;;;;;4.05;1.25;;;13.60;68.50;;;;;;5006958;28;20034;-88